AirNav   Pilot Hours Calculator
 
 1805 users online  

5CT5 Thomson Field Airport
Bethlehem, Connecticut, USA

GOING TO BETHLEHEM?


FAA INFORMATION EFFECTIVE 01 DECEMBER 2022

Location

FAA Identifier: 5CT5
Lat/Long: 41-37-56.3000N 073-12-58.4000W
41-37.938333N 073-12.973333W
41.6323056,-73.2162222
(estimated)
Elevation: 820 ft. / 250 m (estimated)
Variation: 14W (1995)
From city: 1 mile W of BETHLEHEM, CT
Time zone: UTC -5 (UTC -4 during Daylight Saving Time)
Zip code: 06751

Airport Operations

Airport use: Private use. Permission required prior to landing
Activation date: 03/1998
Control tower: no
ARTCC: BOSTON CENTER
FSS: BRIDGEPORT FLIGHT SERVICE STATION
Attendance: UNATNDD
Wind indicator: yes
Segmented circle: no

Airport Communications

WX AWOS-3PT at OXC (10 nm S): 132.975 (203-262-1190)
WX ASOS at MMK (19 nm SE): 134.925 (203-639-9405)
WX AWOS-AV at CT71 (19 nm E): 129.825
WX ASOS at DXR (20 nm SW): 127.75 (203-791-8227)

Nearby radio navigation aids

VOR radial/distance  VOR name  Freq  Var
PWLr128/19.1PAWLING VOR/DME114.3012W
CMKr050/26.8CARMEL VOR/DME116.6012W
IGNr106/27.2KINGSTON VOR/DME117.6012W
BDRr004/28.6BRIDGEPORT VOR/DME108.8012W
HFDr282/30.0HARTFORD VOR/DME114.9013W
MADr322/30.3MADISON VOR/DME110.4013W
BAFr229/38.8BARNES VORTAC113.0014W

 
NDB name  Hdg/Dist  Freq  Var  ID
STANWYCK092/37.726112WSKU ... -.- ..-

Airport Services

Runway Information

Runway 1/19

Dimensions: 1600 x 100 ft. / 488 x 30 m
Surface: turf
RUNWAY 1  RUNWAY 19
Traffic pattern: leftleft

Airport Ownership and Management from official FAA records

Ownership: Privately-owned
Owner: LEONARD J. ASSARD
78 THOMSON ROAD
BETHLEHEM, CT 06751
Phone 203-266-7175
Manager: LEONARD J. ASSARD
78 THOMSON ROAD
BETHLEHEM, CT 06751
Phone 203-266-7175

Additional Remarks

FOR CD CTC YANKEE APCH AT 860-386-3597

Instrument Procedures

There are no published instrument procedures at 5CT5.

Some nearby airports with instrument procedures:

KOXC - Waterbury-Oxford Airport (10 nm S)
4B8 - Robertson Field Airport (16 nm E)
KMMK - Meriden Markham Municipal Airport (19 nm SE)
KDXR - Danbury Municipal Airport (20 nm SW)
44N - Sky Acres Airport (24 nm W)
 
Loc | Ops | Rwys | IFR | FBO | Links
Com | Nav | Svcs | Stats | Notes

Silver City Flying Club
 
Area around 5CT5 (Thomson Field Airport)
 
Road maps at: MapQuest Bing Google
 
Aerial photo
No photo
 
Sectional chart

 
Airport distance calculator
Flying to Thomson Field Airport? Find the distance to fly.

From to 5CT5

Sunrise and sunset
Times for 08-Dec-2022
 Local
(UTC-5)
 Zulu
(UTC)
Morning civil twilight06:3711:37
Sunrise07:0812:08
Sunset16:2221:22
Evening civil twilight16:5321:53

Current date and time
Zulu (UTC)  08-Dec-2022 16:54:18
Local (UTC-5)  08-Dec-2022 11:54:18
 
METAR
KOXC 
11nm SE 
081551Z 32013G18KT 10SM FEW033 09/02 A3020 RMK AO2 SLP240 T00890017
KMMK 
19nm E 
081553Z AUTO 34016G22KT 10SM CLR 11/01 A3020 RMK AO2 SLP227 T01110006
KDXR 
20nm SW 
081553Z 32007KT 10SM CLR 10/02 A3021 RMK AO2 SLP231 T01000017
TAF
KBDR 
28nm S 
081434Z 0815/0912 34012G22KT P6SM SCT035 SCT250 FM082100 33011KT P6SM SCT250 FM090300 36007KT P6SM SCT250
KBDL 
30nm NE 
081444Z 0815/0918 34009KT P6SM FEW200 FM081600 33011G21KT P6SM FEW250 FM082200 34009KT P6SM FEW250
KPOU 
30nm W 
081148Z 0812/0912 VRB03KT P6SM FEW040 FEW250 TEMPO 0812/0814 2SM BR FM081500 34010KT P6SM SCT040 FM090300 36004KT P6SM SKC
NOTAMs
Click for the latest NOTAMs
NOTAMs are issued by the DoD/FAA and will open in a separate window not controlled by AirNav.

 

 
 

Would you like to see your business listed on this page?

 If your business provides an interesting product or service to pilots, flight crews, aircraft, or users of the Thomson Field Airport, you should consider listing it here.  To start the listing process, click on the button below
 
Add a business
 

Other Pages about Thomson Field Airport

Update a link
 
Copyright © AirNav, LLC. All rights reserved. Privacy Policy  Contact